Time;durP1;ratioP1;P1;durP2;ratioP2;P2;SDS_P1;SDS_P2;PMS_P1;PMS_P2;Temp;Humidity;BMP_temperature;BMP_pressure;BME280_temperature;BME280_humidity;BME280_pressure;Samples;Min_cycle;Max_cycle;Signal;HPM_P1;HPM_P2
2023/03/12 00:01:19;;;;;;;;;10.33;8.33;;;;;6.41;68.17;100647.09;5119173;27;45352;-62
2023/03/12 00:03:46;;;;;;;;;8.00;8.00;;;;;6.49;68.84;100650.53;5119706;27;45290;-62
2023/03/12 00:06:11;;;;;;;;;5.00;5.00;;;;;6.63;67.37;100658.25;5119583;27;45561;-62
2023/03/12 00:08:37;;;;;;;;;10.67;8.00;;;;;6.63;69.71;100648.66;5118373;27;47044;-62
2023/03/12 00:11:10;;;;;;;;;9.33;7.33;;;;;6.62;69.67;100649.56;5119231;27;45297;-62
2023/03/12 00:13:36;;;;;;;;;8.67;8.00;;;;;6.65;68.81;100640.81;5119042;27;45387;-62
2023/03/12 00:16:13;;;;;;;;;8.67;6.00;;;;;6.66;68.48;100649.53;5119240;27;45389;-62
2023/03/12 00:18:39;;;;;;;;;8.33;5.00;;;;;6.64;69.61;100641.69;5118589;27;45407;-62
2023/03/12 00:21:05;;;;;;;;;8.33;8.33;;;;;6.39;69.44;100602.66;5119089;27;45319;-62
2023/03/12 00:23:30;;;;;;;;;9.00;7.67;;;;;6.58;68.73;100634.75;5119252;27;45422;-62
2023/03/12 00:26:01;;;;;;;;;7.00;4.00;;;;;6.63;68.53;100648.66;5119271;27;45296;-62
2023/03/12 00:28:26;;;;;;;;;7.00;5.00;;;;;6.63;70.29;100642.56;5118284;27;45507;-62
2023/03/12 00:30:52;;;;;;;;;7.75;6.75;;;;;6.62;68.51;100648.66;5118990;27;45452;-62
2023/03/12 00:33:17;;;;;;;;;7.00;7.00;;;;;6.57;70.28;100635.63;5119038;27;45241;-62
2023/03/12 00:35:43;;;;;;;;;9.00;7.33;;;;;6.58;70.69;100629.53;5119164;27;45468;-62
2023/03/12 00:38:08;;;;;;;;;13.00;10.67;;;;;6.65;70.36;100624.25;5118821;27;46312;-62
2023/03/12 00:40:34;;;;;;;;;7.67;6.33;;;;;6.65;69.15;100614.66;5118806;27;45394;-62
2023/03/12 00:42:59;;;;;;;;;6.67;6.00;;;;;6.68;70.44;100611.13;5119040;27;45694;-62
2023/03/12 00:45:24;;;;;;;;;8.33;6.67;;;;;6.58;69.33;100595.53;5119120;27;45354;-62
2023/03/12 00:47:49;;;;;;;;;5.67;5.67;;;;;6.47;69.10;100565.97;5118614;27;46605;-62
2023/03/12 00:50:15;;;;;;;;;8.67;7.33;;;;;6.71;69.68;100608.47;5118742;27;45249;-62
2023/03/12 00:52:40;;;;;;;;;8.67;5.00;;;;;6.61;71.31;100602.47;5118808;27;45311;-62
2023/03/12 00:55:06;;;;;;;;;8.00;4.33;;;;;6.75;71.68;100616.31;5119100;27;45430;-62
2023/03/12 00:57:31;;;;;;;;;10.33;8.33;;;;;6.78;70.60;100618.91;5118414;27;45664;-62
2023/03/12 00:59:57;;;;;;;;;7.00;7.00;;;;;6.84;69.32;100625.81;5118522;27;45216;-62
2023/03/12 01:02:22;;;;;;;;;9.67;8.00;;;;;6.81;70.19;100623.22;5118880;27;45895;-62
2023/03/12 01:04:47;;;;;;;;;11.33;8.00;;;;;6.77;72.48;100621.53;5118839;27;45434;-62
2023/03/12 01:07:13;;;;;;;;;10.67;8.67;;;;;6.78;71.60;100626.75;5118186;27;45459;-62
2023/03/12 01:09:38;;;;;;;;;9.67;9.67;;;;;6.76;72.08;100614.56;5118503;27;45250;-62
2023/03/12 01:12:05;;;;;;;;;12.00;8.67;;;;;6.78;71.74;100620.63;5118277;27;45466;-62
2023/03/12 01:14:30;;;;;;;;;10.33;7.33;;;;;6.77;74.22;100621.53;5118799;27;45458;-62
2023/03/12 01:16:56;;;;;;;;;12.00;7.00;;;;;6.86;72.53;100618.81;5118179;27;46408;-62
2023/03/12 01:19:21;;;;;;;;;7.33;7.33;;;;;6.86;74.34;100603.09;5118446;27;45380;-63
2023/03/12 01:21:47;;;;;;;;;7.67;7.67;;;;;6.84;72.96;100610.13;5120079;27;45380;-63
2023/03/12 01:24:12;;;;;;;;;9.33;8.00;;;;;6.88;74.39;100606.56;5122141;27;45249;-63
2023/03/12 01:26:37;;;;;;;;;9.67;7.67;;;;;6.88;72.48;100600.47;5121941;27;45366;-63
2023/03/12 01:29:03;;;;;;;;;9.00;9.00;;;;;6.81;75.66;100607.50;5121841;27;45379;-63
2023/03/12 01:31:28;;;;;;;;;3.00;3.00;;;;;6.86;72.88;100605.72;5122204;27;45373;-62
2023/03/12 01:33:53;;;;;;;;;14.67;9.00;;;;;6.82;74.66;100590.94;5121963;27;45402;-62
2023/03/12 01:36:23;;;;;;;;;14.33;10.00;;;;;6.79;76.20;100602.28;5121616;27;46721;-63
2023/03/12 01:38:53;;;;;;;;;9.67;9.33;;;;;6.83;73.62;100597.91;5121679;27;45253;-62
2023/03/12 01:41:20;;;;;;;;;10.00;9.33;;;;;6.79;74.08;100604.06;5121701;27;45468;-63
2023/03/12 01:43:45;;;;;;;;;13.33;10.00;;;;;6.72;74.51;100597.13;5121675;27;45280;-63
2023/03/12 01:46:25;;;;;;;;;10.67;10.00;;;;;6.75;76.98;100594.50;5121706;27;45666;-62
2023/03/12 01:49:09;;;;;;;;;10.67;10.67;;;;;6.76;76.19;100596.25;5121472;27;45378;-62
2023/03/12 01:51:49;;;;;;;;;10.67;10.33;;;;;6.75;76.73;100578.78;5121482;27;45296;-62
2023/03/12 01:54:24;;;;;;;;;14.00;11.00;;;;;6.74;77.39;100570.09;5121491;27;45410;-62
2023/03/12 01:56:50;;;;;;;;;13.00;10.67;;;;;6.76;76.61;100594.47;5121261;27;45380;-62
2023/03/12 01:59:24;;;;;;;;;13.67;10.00;;;;;6.74;78.23;100593.63;5121333;27;45908;-62
2023/03/12 02:01:50;;;;;;;;;11.67;10.00;;;;;6.66;78.93;100569.28;5121225;27;45338;-62
2023/03/12 02:04:18;;;;;;;;;14.67;12.00;;;;;6.75;79.74;100597.09;5121642;27;45386;-62
2023/03/12 02:06:55;;;;;;;;;20.67;13.67;;;;;6.75;78.13;100591.88;5121013;27;45704;-62
2023/03/12 02:09:22;;;;;;;;;12.00;12.00;;;;;6.45;80.57;100541.59;5121188;27;45330;-62
2023/03/12 02:11:47;;;;;;;;;17.00;14.33;;;;;6.76;79.66;100586.63;5121318;27;45353;-62
2023/03/12 02:14:13;;;;;;;;;17.00;15.00;;;;;6.75;79.13;100578.78;5121108;27;45305;-62
2023/03/12 02:16:39;;;;;;;;;16.67;15.00;;;;;6.78;79.73;100579.66;5120940;27;46680;-62
2023/03/12 02:19:15;;;;;;;;;13.33;10.00;;;;;6.73;80.04;100570.09;5121287;27;45402;-62
2023/03/12 02:21:40;;;;;;;;;16.67;14.67;;;;;6.76;79.00;100575.31;5121287;27;45436;-62
2023/03/12 02:24:22;;;;;;;;;17.33;16.33;;;;;6.72;81.64;100566.59;5121263;27;45485;-62
2023/03/12 02:26:48;;;;;;;;;17.33;15.00;;;;;6.77;80.60;100561.34;5120746;27;46997;-62
2023/03/12 02:29:14;;;;;;;;;19.33;14.67;;;;;6.70;81.12;100554.44;5120906;27;45347;-62
2023/03/12 02:31:45;;;;;;;;;13.67;13.67;;;;;6.75;80.08;100557.84;5120456;27;45378;-62
2023/03/12 02:34:10;;;;;;;;;26.00;17.33;;;;;6.73;83.27;100549.16;5121058;27;45168;-62
2023/03/12 02:36:36;;;;;;;;;17.33;16.00;;;;;6.73;81.61;100546.56;5120515;27;46029;-62
2023/03/12 02:39:01;;;;;;;;;22.00;18.33;;;;;6.75;80.30;100540.44;5120707;27;45548;-62
2023/03/12 02:41:32;;;;;;;;;25.67;18.67;;;;;6.69;80.58;100527.38;5120943;27;45384;-62
2023/03/12 02:44:15;;;;;;;;;24.00;22.00;;;;;6.70;82.90;100538.75;5120800;27;45425;-62
2023/03/12 02:46:48;;;;;;;;;31.00;23.67;;;;;6.77;84.27;100538.66;5120377;27;45452;-62
2023/03/12 02:49:14;;;;;;;;;25.00;20.67;;;;;6.59;82.95;100510.06;5120398;27;45326;-62
2023/03/12 02:51:41;;;;;;;;;20.33;18.00;;;;;6.83;81.35;100535.09;5120771;27;45396;-62
2023/03/12 02:54:07;;;;;;;;;24.00;20.00;;;;;6.84;85.22;100530.72;5120822;27;45212;-62
2023/03/12 02:56:33;;;;;;;;;21.00;20.00;;;;;6.84;82.93;100533.34;5120428;27;45449;-62
2023/03/12 02:58:58;;;;;;;;;25.33;23.33;;;;;6.85;81.58;100527.25;5120229;27;45477;-62
2023/03/12 03:01:24;;;;;;;;;33.00;25.67;;;;;6.83;85.19;100522.03;5120388;27;45476;-62
2023/03/12 03:03:50;;;;;;;;;33.67;26.33;;;;;6.80;84.49;100522.06;5120730;27;45320;-62
2023/03/12 03:06:16;;;;;;;;;30.67;26.67;;;;;6.80;83.99;100524.69;5118755;27;46272;-63
2023/03/12 03:08:41;;;;;;;;;32.00;27.00;;;;;6.76;83.34;100521.22;5120229;27;45282;-62
2023/03/12 03:11:07;;;;;;;;;33.67;32.00;;;;;6.84;85.69;100528.09;5120297;27;45320;-62
2023/03/12 03:13:32;;;;;;;;;31.33;27.33;;;;;6.86;83.29;100529.84;5120143;27;45370;-62
2023/03/12 03:16:00;;;;;;;;;39.00;28.67;;;;;6.84;84.65;100520.25;5120110;27;45360;-62
2023/03/12 03:18:26;;;;;;;;;33.67;29.67;;;;;6.80;87.55;100528.16;5120145;27;45331;-62
2023/03/12 03:21:01;;;;;;;;;30.33;24.67;;;;;6.86;85.01;100529.84;5120207;27;45244;-62
2023/03/12 03:23:26;;;;;;;;;35.33;31.00;;;;;6.88;87.81;100532.44;5120328;27;45347;-62
2023/03/12 03:25:52;;;;;;;;;31.00;26.33;;;;;6.87;85.70;100530.69;5119674;27;45378;-62
2023/03/12 03:28:23;;;;;;;;;36.67;30.00;;;;;6.89;88.19;100528.94;5119915;27;45310;-62
2023/03/12 03:30:51;;;;;;;;;31.00;26.33;;;;;7.02;88.58;100548.00;5119886;27;45273;-62
2023/03/12 03:33:16;;;;;;;;;33.33;27.33;;;;;7.00;87.77;100534.03;5120039;27;45268;-62
2023/03/12 03:35:41;;;;;;;;;40.00;35.00;;;;;6.76;88.89;100502.88;5119653;27;46003;-62
2023/03/12 03:38:07;;;;;;;;;34.33;28.33;;;;;7.04;86.80;100538.34;5119635;27;45254;-63
2023/03/12 03:40:32;;;;;;;;;31.67;24.67;;;;;6.88;85.97;100499.25;5119818;27;45198;-63
2023/03/12 03:42:58;;;;;;;;;29.33;24.67;;;;;7.18;86.67;100546.91;5119971;27;45230;-62
2023/03/12 03:45:23;;;;;;;;;30.00;25.33;;;;;7.14;85.45;100546.09;5118577;27;46609;-62
2023/03/12 03:47:48;;;;;;;;;28.67;25.67;;;;;7.17;86.71;100552.19;5119578;27;45310;-62
2023/03/12 03:50:14;;;;;;;;;32.00;24.33;;;;;7.12;88.10;100544.38;5119579;27;45438;-62
2023/03/12 03:52:39;;;;;;;;;25.67;24.33;;;;;7.12;87.01;100539.16;5119849;27;45317;-62
2023/03/12 03:55:05;;;;;;;;;26.33;23.00;;;;;6.86;87.11;100505.44;5119463;27;45318;-63
2023/03/12 03:57:30;;;;;;;;;41.00;34.33;;;;;7.16;89.69;100543.47;5119363;27;45231;-62
2023/03/12 03:59:57;;;;;;;;;26.00;17.33;;;;;7.14;87.05;100538.25;5119645;27;45265;-62
2023/03/12 04:02:24;;;;;;;;;30.33;24.00;;;;;7.17;89.92;100544.31;5119709;27;45306;-62
2023/03/12 04:04:50;;;;;;;;;23.67;20.00;;;;;7.21;88.66;100548.66;5119132;27;45326;-63
2023/03/12 04:07:15;;;;;;;;;20.33;19.00;;;;;7.22;88.36;100548.63;5119327;27;45422;-63
2023/03/12 04:09:41;;;;;;;;;19.00;18.67;;;;;7.23;87.26;100531.16;5119429;27;45469;-63
2023/03/12 04:12:06;;;;;;;;;21.67;18.00;;;;;7.34;87.37;100539.75;5119673;27;45300;-62
2023/03/12 04:14:32;;;;;;;;;26.33;21.00;;;;;7.39;89.34;100552.78;5118901;27;46698;-63
2023/03/12 04:16:57;;;;;;;;;23.00;20.33;;;;;7.40;87.52;100557.13;5119231;27;45210;-62
2023/03/12 04:19:22;;;;;;;;;23.00;19.00;;;;;7.43;88.66;100546.63;5119412;27;45648;-62
2023/03/12 04:21:48;;;;;;;;;23.33;21.00;;;;;7.48;88.66;100550.91;5119377;27;45266;-62
2023/03/12 04:24:15;;;;;;;;;22.33;17.00;;;;;7.47;88.83;100543.94;5119074;27;45399;-62
2023/03/12 04:26:41;;;;;;;;;19.00;18.67;;;;;7.53;89.13;100536.88;5119208;27;45330;-62
2023/03/12 04:29:06;;;;;;;;;21.00;19.00;;;;;7.53;89.58;100542.13;5118997;27;45398;-62
2023/03/12 04:31:32;;;;;;;;;21.00;16.67;;;;;7.56;89.44;100542.09;5119344;27;45291;-62
2023/03/12 04:33:57;;;;;;;;;28.67;20.67;;;;;7.47;89.72;100527.34;5118756;27;46313;-62
2023/03/12 04:36:22;;;;;;;;;22.67;20.33;;;;;7.60;89.48;100538.53;5119061;27;45326;-62
2023/03/12 04:38:48;;;;;;;;;23.33;21.67;;;;;7.56;90.63;100532.44;5119044;27;45489;-62
2023/03/12 04:41:15;;;;;;;;;28.00;20.33;;;;;7.53;90.81;100516.78;5119210;27;45384;-62
2023/03/12 04:43:41;;;;;;;;;22.00;19.00;;;;;7.67;91.11;100540.19;5118559;27;46078;-63
2023/03/12 04:46:08;;;;;;;;;21.00;19.33;;;;;7.47;90.35;100493.31;5118727;27;45434;-62
2023/03/12 04:48:34;;;;;;;;;22.00;18.00;;;;;7.74;91.69;100540.94;5119036;27;45389;-62
2023/03/12 04:51:00;;;;;;;;;21.33;19.67;;;;;7.74;91.15;100541.84;5118846;27;45337;-62
2023/03/12 04:53:26;;;;;;;;;25.33;19.33;;;;;7.81;91.68;100551.34;5118534;27;45432;-63
2023/03/12 04:55:51;;;;;;;;;22.00;20.33;;;;;7.83;92.25;100551.31;5118297;27;45439;-62
2023/03/12 04:58:18;;;;;;;;;18.33;16.67;;;;;7.90;91.48;100557.31;5118581;27;45311;-62
2023/03/12 05:00:44;;;;;;;;;23.33;22.67;;;;;7.89;91.52;100555.59;5118921;27;45281;-62
2023/03/12 05:03:09;;;;;;;;;19.00;17.00;;;;;7.95;91.43;100560.75;5118486;27;45336;-62
2023/03/12 05:05:35;;;;;;;;;17.67;16.33;;;;;7.92;92.54;100548.53;5118443;27;45319;-62
2023/03/12 05:08:02;;;;;;;;;25.67;23.00;;;;;8.02;91.52;100554.53;5118359;27;45448;-62
2023/03/12 05:10:27;;;;;;;;;22.67;18.33;;;;;8.00;93.25;100565.03;5118671;27;45247;-62
2023/03/12 05:12:53;;;;;;;;;20.67;16.67;;;;;8.04;91.90;100559.75;5117962;27;46884;-63
2023/03/12 05:15:18;;;;;;;;;13.33;12.00;;;;;8.02;92.51;100550.13;5118323;27;45442;-62
2023/03/12 05:17:44;;;;;;;;;19.33;19.33;;;;;8.10;92.17;100560.50;5118374;27;45299;-62
2023/03/12 05:20:11;;;;;;;;;28.33;24.00;;;;;8.12;92.68;100563.97;5118528;27;45363;-62
2023/03/12 05:22:37;;;;;;;;;23.00;19.67;;;;;8.10;92.82;100552.63;5118125;27;45589;-62
2023/03/12 05:25:03;;;;;;;;;23.67;20.67;;;;;7.96;92.05;100526.63;5118189;27;45338;-62
2023/03/12 05:27:29;;;;;;;;;26.67;19.33;;;;;8.17;92.60;100570.00;5118346;27;45351;-62
2023/03/12 05:29:54;;;;;;;;;28.00;21.67;;;;;7.94;93.27;100520.53;5118296;27;45509;-62
2023/03/12 05:32:20;;;;;;;;;20.33;17.33;;;;;8.22;93.17;100572.56;5118119;27;46528;-62
2023/03/12 05:34:45;;;;;;;;;21.33;20.00;;;;;8.23;93.25;100576.91;5118028;27;45296;-62
2023/03/12 05:37:11;;;;;;;;;20.00;14.33;;;;;8.25;93.00;100567.28;5118436;27;45617;-62
2023/03/12 05:39:36;;;;;;;;;20.33;15.33;;;;;8.30;93.53;100564.56;5118354;27;45295;-62
2023/03/12 05:42:02;;;;;;;;;17.00;15.67;;;;;8.33;94.25;100562.75;5117832;27;47314;-62
2023/03/12 05:44:28;;;;;;;;;20.00;17.67;;;;;8.35;93.53;100563.59;5118031;27;45484;-62
2023/03/12 05:46:53;;;;;;;;;16.00;13.67;;;;;8.39;93.23;100564.41;5118021;27;45323;-62
2023/03/12 05:49:20;;;;;;;;;12.67;11.33;;;;;8.39;93.24;100556.53;5118425;27;45349;-62
2023/03/12 05:51:49;;;;;;;;;11.67;11.67;;;;;8.48;93.69;100576.53;5116391;27;45741;-62
2023/03/12 05:54:16;;;;;;;;;15.67;13.67;;;;;8.42;94.47;100564.34;5117656;27;45310;-63
2023/03/12 05:56:42;;;;;;;;;17.33;11.00;;;;;8.54;94.37;100576.44;5118078;27;45314;-63
2023/03/12 05:59:09;;;;;;;;;14.33;11.00;;;;;8.46;94.86;100563.44;5117968;27;45340;-62
2023/03/12 06:01:35;;;;;;;;;34.00;31.33;;;;;8.65;95.12;100602.50;5117600;27;46203;-62
2023/03/12 06:04:00;;;;;;;;;45.67;38.00;;;;;8.66;95.46;100594.59;5117738;27;45351;-62
2023/03/12 06:06:26;;;;;;;;;13.00;11.67;;;;;8.71;94.38;100602.38;5117848;27;45619;-62
2023/03/12 06:08:51;;;;;;;;;18.33;10.33;;;;;8.71;94.26;100598.03;5121167;27;45525;-62
2023/03/12 06:11:17;;;;;;;;;19.33;10.67;;;;;8.84;93.80;100610.91;5121071;27;46513;-62
2023/03/12 06:13:43;;;;;;;;;7.00;5.75;;;;;8.88;94.62;100612.59;5120766;27;45494;-62
2023/03/12 06:16:20;;;;;;;;;11.75;4.75;;;;;8.94;94.39;100607.22;5121326;27;45471;-62
2023/03/12 06:18:46;;;;;;;;;11.00;7.00;;;;;8.98;95.87;100608.06;5121406;27;45548;-62
2023/03/12 06:21:18;;;;;;;;;7.67;5.00;;;;;9.09;95.45;100616.59;5120914;27;46388;-62
2023/03/12 06:23:44;;;;;;;;;13.25;9.00;;;;;9.05;95.59;100588.66;5120981;27;45363;-62
2023/03/12 06:26:10;;;;;;;;;17.25;6.00;;;;;9.19;96.39;100609.38;5121046;27;45321;-62
2023/03/12 06:28:36;;;;;;;;;9.25;6.00;;;;;9.22;96.01;100612.84;5120977;27;45481;-62
2023/03/12 06:31:02;;;;;;;;;16.00;6.00;;;;;9.27;96.43;100606.63;5120715;27;45349;-62
2023/03/12 06:33:27;;;;;;;;;20.75;10.00;;;;;9.27;96.65;100607.50;5114836;27;45321;-62
2023/03/12 06:35:56;;;;;;;;;14.75;8.25;;;;;9.31;96.31;100611.78;5108770;27;45200;-62
2023/03/12 06:38:21;;;;;;;;;17.75;9.50;;;;;9.41;97.00;100628.25;5102748;27;45365;-62
2023/03/12 06:40:58;;;;;;;;;12.75;6.00;;;;;9.43;97.00;100631.72;5099835;27;46497;-62
2023/03/12 06:43:24;;;;;;;;;17.00;12.00;;;;;9.52;95.43;100630.66;5099995;27;45468;-62
2023/03/12 06:45:50;;;;;;;;;13.25;9.75;;;;;9.51;95.74;100626.28;5100068;27;45423;-62
2023/03/12 06:48:16;;;;;;;;;24.00;10.00;;;;;9.57;97.91;100634.06;5100167;27;45503;-62
2023/03/12 06:50:41;;;;;;;;;16.00;11.00;;;;;9.61;95.97;100633.09;5100033;27;45372;-63
2023/03/12 06:53:07;;;;;;;;;16.67;12.33;;;;;9.66;95.51;100625.97;5099783;27;45194;-62
2023/03/12 06:55:32;;;;;;;;;21.25;14.00;;;;;9.72;95.80;100628.47;5100082;27;45645;-62
2023/03/12 06:57:57;;;;;;;;;19.50;10.50;;;;;9.65;95.04;100602.34;5100138;27;45381;-63
2023/03/12 07:00:23;;;;;;;;;22.25;12.50;;;;;9.82;96.42;100636.19;5099475;27;46461;-62
2023/03/12 07:02:48;;;;;;;;;18.67;9.33;;;;;9.81;96.04;100645.81;5100014;27;45226;-62
2023/03/12 07:05:13;;;;;;;;;17.75;11.75;;;;;9.81;96.60;100642.34;5099872;27;45273;-62
2023/03/12 07:07:39;;;;;;;;;23.00;12.50;;;;;9.86;96.99;100651.84;5100022;27;45390;-63
2023/03/12 07:10:06;;;;;;;;;17.00;9.00;;;;;9.92;96.08;100653.50;5099583;27;45713;-63
2023/03/12 07:12:32;;;;;;;;;22.00;10.33;;;;;9.86;95.02;100630.81;5099400;27;45348;-63
2023/03/12 07:14:57;;;;;;;;;20.50;12.00;;;;;9.94;95.40;100638.53;5099752;27;45323;-63
2023/03/12 07:17:24;;;;;;;;;12.75;6.25;;;;;10.02;94.56;100649.75;5099793;27;45406;-63
2023/03/12 07:19:50;;;;;;;;;18.50;8.75;;;;;10.08;94.32;100654.03;5099355;27;45898;-62
2023/03/12 07:22:15;;;;;;;;;22.00;8.75;;;;;10.11;93.84;100662.69;5105646;27;45337;-63
2023/03/12 07:24:40;;;;;;;;;13.25;7.00;;;;;10.10;94.29;100658.31;5120047;27;45402;-63
2023/03/12 07:27:05;;;;;;;;;13.00;9.00;;;;;10.15;94.70;100662.63;5120453;27;45356;-63
2023/03/12 07:29:31;;;;;;;;;13.75;7.75;;;;;10.19;94.30;100659.03;5119740;27;46657;-63
2023/03/12 07:31:56;;;;;;;;;16.50;8.25;;;;;10.02;93.66;100628.72;5120014;27;45447;-63
2023/03/12 07:34:21;;;;;;;;;18.33;10.00;;;;;10.25;93.41;100654.50;5120005;27;45333;-63
2023/03/12 07:36:47;;;;;;;;;20.00;8.67;;;;;10.31;93.49;100663.13;5120076;27;45400;-63
2023/03/12 07:39:12;;;;;;;;;8.00;6.00;;;;;10.36;93.00;100679.75;5119834;27;46196;-63
2023/03/12 07:41:37;;;;;;;;;24.50;9.00;;;;;10.29;93.12;100663.19;5119674;27;45525;-63
2023/03/12 07:44:03;;;;;;;;;18.00;8.25;;;;;10.39;93.40;100683.16;5119946;27;45532;-63
2023/03/12 07:46:29;;;;;;;;;16.75;9.75;;;;;10.45;92.64;100687.41;5120021;27;45609;-63
2023/03/12 07:48:54;;;;;;;;;15.00;9.25;;;;;10.53;92.29;100705.66;5119366;27;47034;-63
2023/03/12 07:51:20;;;;;;;;;16.25;8.75;;;;;10.57;92.43;100705.56;5119061;27;45298;-63
2023/03/12 07:53:45;;;;;;;;;9.75;7.00;;;;;10.56;92.45;100711.72;5119567;27;45232;-63
2023/03/12 07:56:10;;;;;;;;;14.67;8.33;;;;;10.57;92.69;100704.69;5120171;27;45158;-63
2023/03/12 07:58:37;;;;;;;;;19.75;8.00;;;;;10.65;92.88;100710.66;5119225;27;46267;-63
2023/03/12 08:01:02;;;;;;;;;29.67;16.00;;;;;10.66;92.37;100701.84;5118641;27;45433;-63
2023/03/12 08:03:29;;;;;;;;;19.00;12.75;;;;;10.66;92.20;100703.59;5119634;27;45316;-63
2023/03/12 08:05:57;;;;;;;;;19.75;10.00;;;;;10.82;91.28;100722.53;5119659;27;45343;-63
2023/03/12 08:08:22;;;;;;;;;20.75;12.75;;;;;10.67;91.12;100692.19;5117553;27;46613;-63
2023/03/12 08:10:47;;;;;;;;;12.33;7.33;;;;;10.97;90.67;100728.28;5119290;27;45233;-63
2023/03/12 08:13:13;;;;;;;;;19.33;9.33;;;;;11.01;90.99;100718.56;5119079;27;45264;-63
2023/03/12 08:15:38;;;;;;;;;23.75;10.00;;;;;11.06;88.88;100714.03;5119224;27;45341;-62
2023/03/12 08:18:03;;;;;;;;;21.75;10.00;;;;;11.23;88.96;100724.13;5118221;27;46749;-63
2023/03/12 08:20:29;;;;;;;;;13.00;11.67;;;;;11.34;89.52;100726.47;5118083;27;45370;-63
2023/03/12 08:22:54;;;;;;;;;15.33;10.00;;;;;11.44;88.75;100727.13;5119022;27;45269;-63
2023/03/12 08:25:20;;;;;;;;;12.75;8.50;;;;;11.56;87.77;100736.47;5119240;27;45304;-63
2023/03/12 08:27:45;;;;;;;;;14.75;9.75;;;;;11.63;88.40;100738.03;5118941;27;46602;-63
2023/03/12 08:30:12;;;;;;;;;14.25;9.50;;;;;11.72;87.02;100737.78;5117782;27;45409;-63
2023/03/12 08:32:37;;;;;;;;;17.33;8.33;;;;;11.76;86.23;100733.28;5119244;27;45517;-63
2023/03/12 08:35:04;;;;;;;;;20.67;7.67;;;;;11.87;85.34;100727.72;5119002;27;45494;-63
2023/03/12 08:37:29;;;;;;;;;9.25;6.25;;;;;11.98;85.11;100718.63;5118580;27;46115;-63
2023/03/12 08:39:56;;;;;;;;;20.25;9.00;;;;;12.22;84.68;100731.97;5118728;27;45346;-63
2023/03/12 08:42:21;;;;;;;;;21.25;8.00;;;;;12.36;84.25;100735.06;5118953;27;45284;-63
2023/03/12 08:44:47;;;;;;;;;11.75;6.75;;;;;12.49;83.09;100725.00;5118833;27;45553;-62
2023/03/12 08:47:12;;;;;;;;;13.75;9.25;;;;;12.56;82.58;100740.66;5118511;27;46413;-63
2023/03/12 08:49:37;;;;;;;;;23.50;8.25;;;;;12.57;82.08;100731.81;5118674;27;45165;-63
2023/03/12 08:52:03;;;;;;;;;20.33;15.67;;;;;12.62;81.82;100724.59;5118837;27;45248;-63
2023/03/12 08:54:28;;;;;;;;;18.00;8.33;;;;;12.72;81.70;100733.97;5118855;27;45297;-63
2023/03/12 08:56:54;;;;;;;;;14.25;8.00;;;;;12.39;80.65;100685.72;5118613;27;45292;-63
2023/03/12 08:59:21;;;;;;;;;9.00;7.00;;;;;12.70;81.09;100744.59;5118566;27;45266;-63
2023/03/12 09:01:47;;;;;;;;;11.33;7.67;;;;;12.71;80.95;100735.75;5118577;27;45466;-63
2023/03/12 09:04:12;;;;;;;;;17.00;12.33;;;;;12.70;80.07;100733.16;5118890;27;45315;-63
2023/03/12 09:06:37;;;;;;;;;12.00;8.75;;;;;12.67;80.42;100749.13;5118167;27;46072;-64
2023/03/12 09:09:04;;;;;;;;;14.50;10.00;;;;;12.64;79.89;100752.72;5118514;27;45283;-63
2023/03/12 09:11:31;;;;;;;;;21.50;9.00;;;;;12.60;79.41;100756.34;5118515;27;45526;-63
2023/03/12 09:13:56;;;;;;;;;11.75;8.50;;;;;12.62;79.51;100757.19;5118480;27;45469;-63
2023/03/12 09:16:22;;;;;;;;;11.50;6.00;;;;;12.59;79.26;100757.28;5118181;27;46223;-63
2023/03/12 09:18:47;;;;;;;;;8.67;7.67;;;;;12.66;79.72;100769.41;5115612;27;45368;-63
2023/03/12 09:21:12;;;;;;;;;18.00;7.25;;;;;12.67;78.77;100764.97;5118304;27;45639;-63
2023/03/12 09:23:38;;;;;;;;;13.00;6.75;;;;;12.80;78.75;100776.00;5118496;27;45220;-63
2023/03/12 09:26:04;;;;;;;;;15.50;9.00;;;;;12.92;77.25;100767.69;5118102;27;46402;-63
2023/03/12 09:28:29;;;;;;;;;15.75;8.00;;;;;12.85;76.67;100732.69;5118314;27;45423;-63
2023/03/12 09:30:55;;;;;;;;;19.00;18.67;;;;;12.99;76.19;100753.34;5118107;27;45544;-63
2023/03/12 09:33:20;;;;;;;;;26.00;11.00;;;;;12.97;75.92;100751.66;5118153;27;45237;-63
2023/03/12 09:35:55;;;;;;;;;39.00;30.00;;;;;12.98;76.47;100756.94;5117890;27;45451;-62
2023/03/12 09:38:20;;;;;;;;;39.00;33.00;;;;;13.04;76.60;100771.69;5118157;27;45346;-63
2023/03/12 09:40:46;;;;;;;;;35.67;31.33;;;;;13.09;76.48;100775.06;5118246;27;45282;-63
2023/03/12 09:43:26;;;;;;;;;16.25;10.75;;;;;13.12;76.40;100780.25;5120440;27;45489;-62
2023/03/12 09:45:54;;;;;;;;;16.00;11.00;;;;;13.10;76.70;100762.72;5121143;27;46497;-62
2023/03/12 09:48:31;;;;;;;;;18.67;11.67;;;;;13.23;76.40;100777.28;5121506;27;45259;-62
2023/03/12 09:50:59;;;;;;;;;14.75;10.00;;;;;13.39;76.26;100769.72;5121642;27;45327;-62
2023/03/12 09:53:30;;;;;;;;;21.25;11.25;;;;;13.62;75.25;100781.28;5121565;27;45350;-62
2023/03/12 09:55:58;;;;;;;;;18.00;11.00;;;;;13.78;73.34;100776.31;5121033;27;46446;-62
2023/03/12 09:58:31;;;;;;;;;25.67;13.00;;;;;13.79;72.66;100781.53;5121316;27;45434;-62
2023/03/12 10:01:11;;;;;;;;;15.00;12.00;;;;;13.78;72.91;100785.09;5121236;27;45579;-62
2023/03/12 10:03:55;;;;;;;;;13.33;8.00;;;;;13.88;72.46;100786.53;5121450;27;45260;-62
2023/03/12 10:06:25;;;;;;;;;11.75;9.00;;;;;13.76;72.17;100757.84;5121048;27;46382;-62
2023/03/12 10:08:50;;;;;;;;;14.25;7.75;;;;;14.02;71.08;100787.78;5120976;27;45292;-62
2023/03/12 10:11:31;;;;;;;;;16.75;11.00;;;;;13.99;70.18;100779.97;5121195;27;45541;-62
2023/03/12 10:14:13;;;;;;;;;14.75;8.50;;;;;14.04;70.57;100778.00;5121314;27;45375;-62
2023/03/12 10:17:07;;;;;;;;;13.25;9.50;;;;;14.00;69.06;100769.31;5120651;27;46729;-62
2023/03/12 10:19:46;;;;;;;;;10.25;8.00;;;;;14.60;69.98;100782.94;5120870;27;45516;-62
2023/03/12 10:22:25;;;;;;;;;14.75;7.25;;;;;15.27;66.95;100786.47;5121227;27;45343;-62
2023/03/12 10:24:58;;;;;;;;;20.00;6.75;;;;;15.29;66.09;100789.94;5121414;27;45448;-62
2023/03/12 10:27:28;;;;;;;;;19.50;7.25;;;;;15.11;65.18;100796.00;5120949;27;46688;-62
2023/03/12 10:29:54;;;;;;;;;12.75;8.00;;;;;15.00;64.73;100783.16;5120778;27;45542;-62
2023/03/12 10:32:37;;;;;;;;;8.25;6.75;;;;;15.25;63.79;100775.06;5120956;27;45423;-62
2023/03/12 10:35:14;;;;;;;;;7.50;5.50;;;;;15.58;63.02;100782.53;5121083;27;45421;-63
2023/03/12 10:37:46;;;;;;;;;7.75;6.00;;;;;15.48;62.74;100775.88;5120788;27;45438;-63
2023/03/12 10:40:17;;;;;;;;;13.33;10.00;;;;;15.43;63.62;100789.34;5120765;27;45339;-63
2023/03/12 10:42:42;;;;;;;;;13.67;8.33;;;;;15.38;63.90;100804.59;5120656;27;45381;-63
2023/03/12 10:45:07;;;;;;;;;13.75;8.00;;;;;15.21;62.08;100799.16;5120746;27;45457;-63
2023/03/12 10:47:37;;;;;;;;;10.25;8.25;;;;;15.00;62.45;100806.16;5120593;27;45559;-63
2023/03/12 10:50:18;;;;;;;;;13.75;7.00;;;;;14.75;61.91;100800.03;5120568;27;45429;-63
2023/03/12 10:52:46;;;;;;;;;15.25;7.25;;;;;14.54;62.42;100809.69;5119771;27;45257;-63
2023/03/12 10:55:22;;;;;;;;;12.25;8.00;;;;;14.27;62.62;100791.28;5120628;27;45303;-63
2023/03/12 10:57:49;;;;;;;;;13.50;5.75;;;;;14.18;63.92;100786.31;5120127;27;45550;-63
2023/03/12 11:00:23;;;;;;;;;10.75;7.75;;;;;14.10;64.05;100783.06;5120031;27;45438;-63
2023/03/12 11:03:04;;;;;;;;;13.25;6.75;;;;;14.11;64.20;100798.03;5120573;27;45346;-63
2023/03/12 11:05:29;;;;;;;;;10.25;7.50;;;;;14.02;64.49;100811.63;5120547;27;45508;-62
2023/03/12 11:07:56;;;;;;;;;15.00;9.75;;;;;13.81;64.43;100798.25;5119743;27;45988;-62
2023/03/12 11:10:37;;;;;;;;;11.50;7.00;;;;;13.73;65.76;100821.47;5120313;27;45189;-62
2023/03/12 11:13:20;;;;;;;;;18.00;8.00;;;;;13.61;65.76;100819.22;5120475;27;45329;-62
2023/03/12 11:15:46;;;;;;;;;12.33;9.00;;;;;13.43;66.59;100824.22;5120328;27;45378;-62
2023/03/12 11:18:27;;;;;;;;;15.00;8.50;;;;;13.40;66.97;100824.31;5119861;27;47342;-62
2023/03/12 11:21:07;;;;;;;;;12.25;7.00;;;;;13.31;67.65;100814.03;5117549;27;45509;-62